sensor_id;sensor_type;location;lat;lon;timestamp;temperature;humidity
41953;DHT22;63613;28.200;112.870;2023-11-19T00:01:05;18.30;60.60
41953;DHT22;63613;28.200;112.870;2023-11-19T00:03:32;18.30;60.50
41953;DHT22;63613;28.200;112.870;2023-11-19T00:06:00;18.30;60.50
41953;DHT22;63613;28.200;112.870;2023-11-19T00:08:27;18.30;60.50
41953;DHT22;63613;28.200;112.870;2023-11-19T00:10:54;18.30;60.50
41953;DHT22;63613;28.200;112.870;2023-11-19T00:13:21;18.30;60.50
41953;DHT22;63613;28.200;112.870;2023-11-19T00:15:49;18.30;60.50
41953;DHT22;63613;28.200;112.870;2023-11-19T00:18:16;18.30;60.50
41953;DHT22;63613;28.200;112.870;2023-11-19T00:20:42;18.30;60.50
41953;DHT22;63613;28.200;112.870;2023-11-19T00:23:30;18.30;60.50
41953;DHT22;63613;28.200;112.870;2023-11-19T00:25:57;18.40;60.60
41953;DHT22;63613;28.200;112.870;2023-11-19T00:28:24;18.40;60.50
41953;DHT22;63613;28.200;112.870;2023-11-19T00:30:51;18.40;60.50
41953;DHT22;63613;28.200;112.870;2023-11-19T00:33:17;18.40;60.50
41953;DHT22;63613;28.200;112.870;2023-11-19T00:35:44;18.40;60.50
41953;DHT22;63613;28.200;112.870;2023-11-19T00:38:11;18.40;60.60
41953;DHT22;63613;28.200;112.870;2023-11-19T00:40:38;18.40;60.70
41953;DHT22;63613;28.200;112.870;2023-11-19T00:43:07;18.40;60.70
41953;DHT22;63613;28.200;112.870;2023-11-19T00:45:33;18.40;59.90
41953;DHT22;63613;28.200;112.870;2023-11-19T00:48:00;18.50;58.40
41953;DHT22;63613;28.200;112.870;2023-11-19T00:50:27;18.40;58.80
41953;DHT22;63613;28.200;112.870;2023-11-19T00:52:55;18.40;59.00
41953;DHT22;63613;28.200;112.870;2023-11-19T00:55:22;18.50;59.80
41953;DHT22;63613;28.200;112.870;2023-11-19T00:57:49;18.50;60.00
41953;DHT22;63613;28.200;112.870;2023-11-19T01:00:16;18.50;60.10
41953;DHT22;63613;28.200;112.870;2023-11-19T01:02:52;18.60;60.90
41953;DHT22;63613;28.200;112.870;2023-11-19T01:05:20;18.50;61.40
41953;DHT22;63613;28.200;112.870;2023-11-19T01:07:48;18.60;61.30
41953;DHT22;63613;28.200;112.870;2023-11-19T01:10:16;18.60;61.40
41953;DHT22;63613;28.200;112.870;2023-11-19T01:12:44;18.60;61.60
41953;DHT22;63613;28.200;112.870;2023-11-19T01:15:11;18.60;62.20
41953;DHT22;63613;28.200;112.870;2023-11-19T01:17:39;18.70;62.60
41953;DHT22;63613;28.200;112.870;2023-11-19T01:20:26;18.70;62.70
41953;DHT22;63613;28.200;112.870;2023-11-19T01:22:53;18.70;63.00
41953;DHT22;63613;28.200;112.870;2023-11-19T01:25:19;18.70;62.70
41953;DHT22;63613;28.200;112.870;2023-11-19T01:27:46;18.70;62.70
41953;DHT22;63613;28.200;112.870;2023-11-19T01:30:13;18.70;62.80
41953;DHT22;63613;28.200;112.870;2023-11-19T01:32:40;18.80;63.00
41953;DHT22;63613;28.200;112.870;2023-11-19T01:35:07;18.80;62.70
41953;DHT22;63613;28.200;112.870;2023-11-19T01:37:34;18.80;62.50
41953;DHT22;63613;28.200;112.870;2023-11-19T01:40:02;18.80;62.40
41953;DHT22;63613;28.200;112.870;2023-11-19T01:42:51;18.90;62.50
41953;DHT22;63613;28.200;112.870;2023-11-19T01:45:28;19.00;62.40
41953;DHT22;63613;28.200;112.870;2023-11-19T01:48:00;19.00;62.30
41953;DHT22;63613;28.200;112.870;2023-11-19T01:50:32;19.10;62.20
41953;DHT22;63613;28.200;112.870;2023-11-19T01:52:59;19.10;62.10
41953;DHT22;63613;28.200;112.870;2023-11-19T01:55:27;19.20;62.00
41953;DHT22;63613;28.200;112.870;2023-11-19T01:57:55;19.20;62.00
41953;DHT22;63613;28.200;112.870;2023-11-19T02:00:26;19.20;61.80
41953;DHT22;63613;28.200;112.870;2023-11-19T02:02:53;19.30;61.80
41953;DHT22;63613;28.200;112.870;2023-11-19T02:05:23;19.30;61.70
41953;DHT22;63613;28.200;112.870;2023-11-19T02:07:50;19.30;61.70
41953;DHT22;63613;28.200;112.870;2023-11-19T02:10:19;19.30;61.50
41953;DHT22;63613;28.200;112.870;2023-11-19T02:12:46;19.30;60.80
41953;DHT22;63613;28.200;112.870;2023-11-19T02:15:13;19.30;60.00
41953;DHT22;63613;28.200;112.870;2023-11-19T02:17:40;19.20;59.00
41953;DHT22;63613;28.200;112.870;2023-11-19T02:20:08;19.20;58.20
41953;DHT22;63613;28.200;112.870;2023-11-19T02:23:01;19.30;57.40
41953;DHT22;63613;28.200;112.870;2023-11-19T02:25:31;19.20;58.20
41953;DHT22;63613;28.200;112.870;2023-11-19T02:28:01;19.30;57.00
41953;DHT22;63613;28.200;112.870;2023-11-19T02:30:30;19.30;57.90
41953;DHT22;63613;28.200;112.870;2023-11-19T02:32:59;19.30;57.10
41953;DHT22;63613;28.200;112.870;2023-11-19T02:35:32;19.30;56.50
41953;DHT22;63613;28.200;112.870;2023-11-19T02:38:01;19.30;55.30
41953;DHT22;63613;28.200;112.870;2023-11-19T02:40:53;19.30;55.30
41953;DHT22;63613;28.200;112.870;2023-11-19T02:43:20;19.30;55.80
41953;DHT22;63613;28.200;112.870;2023-11-19T02:45:47;19.30;54.40
41953;DHT22;63613;28.200;112.870;2023-11-19T02:48:14;19.30;54.10
41953;DHT22;63613;28.200;112.870;2023-11-19T02:50:43;19.30;55.30
41953;DHT22;63613;28.200;112.870;2023-11-19T02:53:09;19.30;53.20
41953;DHT22;63613;28.200;112.870;2023-11-19T02:55:41;19.30;53.30
41953;DHT22;63613;28.200;112.870;2023-11-19T02:58:14;19.30;53.00
41953;DHT22;63613;28.200;112.870;2023-11-19T03:00:59;19.40;52.60
41953;DHT22;63613;28.200;112.870;2023-11-19T03:03:29;19.40;51.80
41953;DHT22;63613;28.200;112.870;2023-11-19T03:06:08;19.50;52.00
41953;DHT22;63613;28.200;112.870;2023-11-19T03:08:36;19.60;51.80
41953;DHT22;63613;28.200;112.870;2023-11-19T03:11:03;19.60;51.20
41953;DHT22;63613;28.200;112.870;2023-11-19T03:13:51;19.60;52.00
41953;DHT22;63613;28.200;112.870;2023-11-19T03:16:19;19.70;51.60
41953;DHT22;63613;28.200;112.870;2023-11-19T03:18:48;19.80;51.70
41953;DHT22;63613;28.200;112.870;2023-11-19T03:21:15;19.80;52.50
41953;DHT22;63613;28.200;112.870;2023-11-19T03:23:43;19.90;52.10
41953;DHT22;63613;28.200;112.870;2023-11-19T03:26:11;19.90;51.80
41953;DHT22;63613;28.200;112.870;2023-11-19T03:28:37;20.00;51.50
41953;DHT22;63613;28.200;112.870;2023-11-19T03:31:07;20.10;51.00
41953;DHT22;63613;28.200;112.870;2023-11-19T03:33:34;20.10;51.50
41953;DHT22;63613;28.200;112.870;2023-11-19T03:36:01;20.20;50.20
41953;DHT22;63613;28.200;112.870;2023-11-19T03:38:28;20.30;50.20
41953;DHT22;63613;28.200;112.870;2023-11-19T03:40:55;20.30;50.50
41953;DHT22;63613;28.200;112.870;2023-11-19T03:43:23;20.40;50.20
41953;DHT22;63613;28.200;112.870;2023-11-19T03:45:50;20.50;51.30
41953;DHT22;63613;28.200;112.870;2023-11-19T03:48:16;20.40;50.80
41953;DHT22;63613;28.200;112.870;2023-11-19T03:50:43;20.50;50.80
41953;DHT22;63613;28.200;112.870;2023-11-19T03:53:12;20.50;50.90
41953;DHT22;63613;28.200;112.870;2023-11-19T03:55:39;20.60;50.50
41953;DHT22;63613;28.200;112.870;2023-11-19T03:58:06;20.60;50.40
41953;DHT22;63613;28.200;112.870;2023-11-19T04:00:34;20.80;49.90
41953;DHT22;63613;28.200;112.870;2023-11-19T04:03:03;20.70;49.80
41953;DHT22;63613;28.200;112.870;2023-11-19T04:05:33;20.80;50.30
41953;DHT22;63613;28.200;112.870;2023-11-19T04:08:00;20.80;50.20
41953;DHT22;63613;28.200;112.870;2023-11-19T04:10:47;20.80;50.00
41953;DHT22;63613;28.200;112.870;2023-11-19T04:13:14;20.80;50.10
41953;DHT22;63613;28.200;112.870;2023-11-19T04:15:41;21.00;51.60
41953;DHT22;63613;28.200;112.870;2023-11-19T04:18:09;21.00;51.20
41953;DHT22;63613;28.200;112.870;2023-11-19T04:20:36;21.00;51.70
41953;DHT22;63613;28.200;112.870;2023-11-19T04:23:03;21.10;51.60
41953;DHT22;63613;28.200;112.870;2023-11-19T04:25:30;21.20;51.70
41953;DHT22;63613;28.200;112.870;2023-11-19T04:27:57;21.30;51.30
41953;DHT22;63613;28.200;112.870;2023-11-19T04:30:23;21.30;51.10
41953;DHT22;63613;28.200;112.870;2023-11-19T04:32:51;21.40;50.90
41953;DHT22;63613;28.200;112.870;2023-11-19T04:35:18;21.50;50.10
41953;DHT22;63613;28.200;112.870;2023-11-19T04:37:45;21.60;50.30
41953;DHT22;63613;28.200;112.870;2023-11-19T04:40:13;21.70;45.90
41953;DHT22;63613;28.200;112.870;2023-11-19T04:42:40;21.70;48.30
41953;DHT22;63613;28.200;112.870;2023-11-19T04:45:08;21.80;44.90
41953;DHT22;63613;28.200;112.870;2023-11-19T04:47:36;21.80;45.60
41953;DHT22;63613;28.200;112.870;2023-11-19T04:50:05;21.90;44.70
41953;DHT22;63613;28.200;112.870;2023-11-19T04:52:33;22.00;45.90
41953;DHT22;63613;28.200;112.870;2023-11-19T04:55:00;22.10;47.50
41953;DHT22;63613;28.200;112.870;2023-11-19T04:57:28;22.10;47.80
41953;DHT22;63613;28.200;112.870;2023-11-19T04:59:55;22.20;45.80
41953;DHT22;63613;28.200;112.870;2023-11-19T05:02:22;22.30;41.90
41953;DHT22;63613;28.200;112.870;2023-11-19T05:04:50;22.30;44.10
41953;DHT22;63613;28.200;112.870;2023-11-19T05:07:17;22.30;43.80
41953;DHT22;63613;28.200;112.870;2023-11-19T05:09:49;22.40;45.50
41953;DHT22;63613;28.200;112.870;2023-11-19T05:12:36;22.50;45.60
41953;DHT22;63613;28.200;112.870;2023-11-19T05:15:03;22.50;45.30
41953;DHT22;63613;28.200;112.870;2023-11-19T05:17:30;22.60;45.70
41953;DHT22;63613;28.200;112.870;2023-11-19T05:19:57;22.60;44.90
41953;DHT22;63613;28.200;112.870;2023-11-19T05:22:24;22.70;45.10
41953;DHT22;63613;28.200;112.870;2023-11-19T05:24:54;22.70;45.20
41953;DHT22;63613;28.200;112.870;2023-11-19T05:27:22;22.80;44.70
41953;DHT22;63613;28.200;112.870;2023-11-19T05:29:50;22.80;44.50
41953;DHT22;63613;28.200;112.870;2023-11-19T05:32:16;22.90;43.50
41953;DHT22;63613;28.200;112.870;2023-11-19T05:34:43;22.90;44.30
41953;DHT22;63613;28.200;112.870;2023-11-19T05:37:14;23.00;43.90
41953;DHT22;63613;28.200;112.870;2023-11-19T05:39:42;23.10;43.80
41953;DHT22;63613;28.200;112.870;2023-11-19T05:42:11;23.20;43.50
41953;DHT22;63613;28.200;112.870;2023-11-19T05:44:38;23.20;42.90
41953;DHT22;63613;28.200;112.870;2023-11-19T05:47:05;23.30;42.70
41953;DHT22;63613;28.200;112.870;2023-11-19T05:49:32;23.30;42.60
41953;DHT22;63613;28.200;112.870;2023-11-19T05:51:59;23.50;42.50
41953;DHT22;63613;28.200;112.870;2023-11-19T05:54:28;23.50;41.60
41953;DHT22;63613;28.200;112.870;2023-11-19T05:56:55;23.60;41.70
41953;DHT22;63613;28.200;112.870;2023-11-19T05:59:25;23.70;41.40
41953;DHT22;63613;28.200;112.870;2023-11-19T06:01:57;23.80;40.80
41953;DHT22;63613;28.200;112.870;2023-11-19T06:04:24;23.90;41.40
41953;DHT22;63613;28.200;112.870;2023-11-19T06:06:51;24.00;40.80
41953;DHT22;63613;28.200;112.870;2023-11-19T06:09:18;24.10;40.30
41953;DHT22;63613;28.200;112.870;2023-11-19T06:11:45;24.20;41.00
41953;DHT22;63613;28.200;112.870;2023-11-19T06:14:13;24.30;41.20
41953;DHT22;63613;28.200;112.870;2023-11-19T06:16:42;24.40;41.40
41953;DHT22;63613;28.200;112.870;2023-11-19T06:19:10;24.50;41.40
41953;DHT22;63613;28.200;112.870;2023-11-19T06:21:40;24.60;41.40
41953;DHT22;63613;28.200;112.870;2023-11-19T06:24:08;24.70;41.20
41953;DHT22;63613;28.200;112.870;2023-11-19T06:26:35;24.80;41.00
41953;DHT22;63613;28.200;112.870;2023-11-19T06:29:03;24.90;41.10
41953;DHT22;63613;28.200;112.870;2023-11-19T06:31:30;25.00;41.20
41953;DHT22;63613;28.200;112.870;2023-11-19T06:34:17;25.00;41.80
41953;DHT22;63613;28.200;112.870;2023-11-19T06:36:45;24.70;43.10
41953;DHT22;63613;28.200;112.870;2023-11-19T06:39:12;24.40;44.20
41953;DHT22;63613;28.200;112.870;2023-11-19T06:41:40;24.30;43.70
41953;DHT22;63613;28.200;112.870;2023-11-19T06:44:10;24.20;44.50
41953;DHT22;63613;28.200;112.870;2023-11-19T06:46:40;24.10;44.90
41953;DHT22;63613;28.200;112.870;2023-11-19T06:49:08;24.00;44.10
41953;DHT22;63613;28.200;112.870;2023-11-19T06:51:35;23.80;44.70
41953;DHT22;63613;28.200;112.870;2023-11-19T06:54:02;23.70;44.70
41953;DHT22;63613;28.200;112.870;2023-11-19T06:56:29;23.60;42.30
41953;DHT22;63613;28.200;112.870;2023-11-19T06:58:57;23.50;44.60
41953;DHT22;63613;28.200;112.870;2023-11-19T07:01:23;23.40;45.00
41953;DHT22;63613;28.200;112.870;2023-11-19T07:03:53;23.20;46.00
41953;DHT22;63613;28.200;112.870;2023-11-19T07:06:19;23.10;45.70
41953;DHT22;63613;28.200;112.870;2023-11-19T07:08:49;22.90;45.70
41953;DHT22;63613;28.200;112.870;2023-11-19T07:11:16;22.90;46.10
41953;DHT22;63613;28.200;112.870;2023-11-19T07:13:43;22.80;45.20
41953;DHT22;63613;28.200;112.870;2023-11-19T07:16:14;22.80;45.20
41953;DHT22;63613;28.200;112.870;2023-11-19T07:18:41;22.70;45.70
41953;DHT22;63613;28.200;112.870;2023-11-19T07:21:10;22.60;45.60
41953;DHT22;63613;28.200;112.870;2023-11-19T07:23:36;22.50;46.50
41953;DHT22;63613;28.200;112.870;2023-11-19T07:26:06;22.30;46.50
41953;DHT22;63613;28.200;112.870;2023-11-19T07:28:37;22.30;46.30
41953;DHT22;63613;28.200;112.870;2023-11-19T07:31:06;22.20;46.60
41953;DHT22;63613;28.200;112.870;2023-11-19T07:33:35;22.10;46.30
41953;DHT22;63613;28.200;112.870;2023-11-19T07:36:02;22.10;44.40
41953;DHT22;63613;28.200;112.870;2023-11-19T07:38:29;22.00;43.40
41953;DHT22;63613;28.200;112.870;2023-11-19T07:40:56;22.00;43.50
41953;DHT22;63613;28.200;112.870;2023-11-19T07:43:24;21.90;44.30
41953;DHT22;63613;28.200;112.870;2023-11-19T07:45:52;21.90;45.40
41953;DHT22;63613;28.200;112.870;2023-11-19T07:48:19;25.10;40.20
41953;DHT22;63613;28.200;112.870;2023-11-19T07:50:52;28.90;33.80
41953;DHT22;63613;28.200;112.870;2023-11-19T07:53:20;29.90;31.70
41953;DHT22;63613;28.200;112.870;2023-11-19T07:55:48;30.10;31.50
41953;DHT22;63613;28.200;112.870;2023-11-19T07:58:15;31.00;30.10
41953;DHT22;63613;28.200;112.870;2023-11-19T08:00:42;31.80;28.90
41953;DHT22;63613;28.200;112.870;2023-11-19T08:03:09;30.60;30.10
41953;DHT22;63613;28.200;112.870;2023-11-19T08:05:37;28.30;32.70
41953;DHT22;63613;28.200;112.870;2023-11-19T08:08:04;27.00;35.00
41953;DHT22;63613;28.200;112.870;2023-11-19T08:10:32;26.60;35.90
41953;DHT22;63613;28.200;112.870;2023-11-19T08:13:01;26.40;36.40
41953;DHT22;63613;28.200;112.870;2023-11-19T08:15:28;26.40;36.60
41953;DHT22;63613;28.200;112.870;2023-11-19T08:17:56;26.60;36.50
41953;DHT22;63613;28.200;112.870;2023-11-19T08:20:23;27.40;35.40
41953;DHT22;63613;28.200;112.870;2023-11-19T08:22:50;29.50;32.10
41953;DHT22;63613;28.200;112.870;2023-11-19T08:25:22;31.50;29.40
41953;DHT22;63613;28.200;112.870;2023-11-19T08:27:49;32.40;28.10
41953;DHT22;63613;28.200;112.870;2023-11-19T08:30:16;32.90;27.70
41953;DHT22;63613;28.200;112.870;2023-11-19T08:32:50;33.10;27.50
41953;DHT22;63613;28.200;112.870;2023-11-19T08:35:37;32.60;27.70
41953;DHT22;63613;28.200;112.870;2023-11-19T08:38:04;29.20;31.50
41953;DHT22;63613;28.200;112.870;2023-11-19T08:40:51;27.00;35.10
41953;DHT22;63613;28.200;112.870;2023-11-19T08:43:19;25.90;36.90
41953;DHT22;63613;28.200;112.870;2023-11-19T08:45:46;25.30;37.90
41953;DHT22;63613;28.200;112.870;2023-11-19T08:48:13;24.80;39.10
41953;DHT22;63613;28.200;112.870;2023-11-19T08:50:44;24.50;39.70
41953;DHT22;63613;28.200;112.870;2023-11-19T08:53:15;24.20;40.70
41953;DHT22;63613;28.200;112.870;2023-11-19T08:55:43;24.00;41.00
41953;DHT22;63613;28.200;112.870;2023-11-19T08:58:12;23.80;40.90
41953;DHT22;63613;28.200;112.870;2023-11-19T09:00:39;23.70;41.10
41953;DHT22;63613;28.200;112.870;2023-11-19T09:03:06;23.50;41.30
41953;DHT22;63613;28.200;112.870;2023-11-19T09:05:35;23.30;41.70
41953;DHT22;63613;28.200;112.870;2023-11-19T09:08:03;23.20;41.90
41953;DHT22;63613;28.200;112.870;2023-11-19T09:10:30;23.00;42.20
41953;DHT22;63613;28.200;112.870;2023-11-19T09:12:58;22.80;42.70
41953;DHT22;63613;28.200;112.870;2023-11-19T09:15:25;22.70;43.10
41953;DHT22;63613;28.200;112.870;2023-11-19T09:17:53;22.60;43.50
41953;DHT22;63613;28.200;112.870;2023-11-19T09:20:20;22.40;44.20
41953;DHT22;63613;28.200;112.870;2023-11-19T09:22:47;22.30;44.80
41953;DHT22;63613;28.200;112.870;2023-11-19T09:25:14;22.20;44.30
41953;DHT22;63613;28.200;112.870;2023-11-19T09:27:44;22.20;45.00
41953;DHT22;63613;28.200;112.870;2023-11-19T09:30:12;22.10;45.70
41953;DHT22;63613;28.200;112.870;2023-11-19T09:32:38;22.00;45.80
41953;DHT22;63613;28.200;112.870;2023-11-19T09:35:06;22.00;44.20
41953;DHT22;63613;28.200;112.870;2023-11-19T09:37:33;21.90;44.90
41953;DHT22;63613;28.200;112.870;2023-11-19T09:40:03;21.90;45.00
41953;DHT22;63613;28.200;112.870;2023-11-19T09:42:32;21.90;44.80
41953;DHT22;63613;28.200;112.870;2023-11-19T09:45:06;21.80;44.60
41953;DHT22;63613;28.200;112.870;2023-11-19T09:47:40;21.90;44.40
41953;DHT22;63613;28.200;112.870;2023-11-19T09:50:09;21.80;44.20
41953;DHT22;63613;28.200;112.870;2023-11-19T09:52:36;21.80;44.00
41953;DHT22;63613;28.200;112.870;2023-11-19T09:55:05;21.80;43.80
41953;DHT22;63613;28.200;112.870;2023-11-19T09:57:35;21.70;43.80
41953;DHT22;63613;28.200;112.870;2023-11-19T10:00:04;21.70;43.90
41953;DHT22;63613;28.200;112.870;2023-11-19T10:02:33;21.70;43.90
41953;DHT22;63613;28.200;112.870;2023-11-19T10:05:06;21.60;43.80
41953;DHT22;63613;28.200;112.870;2023-11-19T10:07:34;21.60;43.70
41953;DHT22;63613;28.200;112.870;2023-11-19T10:10:02;21.60;43.70
41953;DHT22;63613;28.200;112.870;2023-11-19T10:12:32;21.50;43.50
41953;DHT22;63613;28.200;112.870;2023-11-19T10:14:59;21.50;44.10
41953;DHT22;63613;28.200;112.870;2023-11-19T10:17:32;21.50;44.60
41953;DHT22;63613;28.200;112.870;2023-11-19T10:19:59;21.40;45.00
41953;DHT22;63613;28.200;112.870;2023-11-19T10:22:27;21.40;45.40
41953;DHT22;63613;28.200;112.870;2023-11-19T10:24:54;21.40;45.90
41953;DHT22;63613;28.200;112.870;2023-11-19T10:27:24;21.40;46.20
41953;DHT22;63613;28.200;112.870;2023-11-19T10:29:52;21.30;46.60
41953;DHT22;63613;28.200;112.870;2023-11-19T10:32:18;21.30;46.90
41953;DHT22;63613;28.200;112.870;2023-11-19T10:34:45;21.30;47.00
41953;DHT22;63613;28.200;112.870;2023-11-19T10:37:32;21.30;47.00
41953;DHT22;63613;28.200;112.870;2023-11-19T10:40:21;21.30;46.70
41953;DHT22;63613;28.200;112.870;2023-11-19T10:42:49;21.30;46.80
41953;DHT22;63613;28.200;112.870;2023-11-19T10:45:26;21.30;46.90
41953;DHT22;63613;28.200;112.870;2023-11-19T10:47:56;21.30;47.10
41953;DHT22;63613;28.200;112.870;2023-11-19T10:50:23;21.20;47.40
41953;DHT22;63613;28.200;112.870;2023-11-19T10:53:11;21.20;47.60
41953;DHT22;63613;28.200;112.870;2023-11-19T10:55:42;21.20;47.80
41953;DHT22;63613;28.200;112.870;2023-11-19T10:58:16;21.20;47.90
41953;DHT22;63613;28.200;112.870;2023-11-19T11:00:52;21.10;48.10
41953;DHT22;63613;28.200;112.870;2023-11-19T11:03:24;21.10;48.40
41953;DHT22;63613;28.200;112.870;2023-11-19T11:05:52;21.10;48.50
41953;DHT22;63613;28.200;112.870;2023-11-19T11:08:21;21.10;48.60
41953;DHT22;63613;28.200;112.870;2023-11-19T11:10:55;21.10;48.70
41953;DHT22;63613;28.200;112.870;2023-11-19T11:13:25;21.00;48.80
41953;DHT22;63613;28.200;112.870;2023-11-19T11:15:56;21.00;48.80
41953;DHT22;63613;28.200;112.870;2023-11-19T11:18:27;21.00;48.90
41953;DHT22;63613;28.200;112.870;2023-11-19T11:37:33;20.90;49.80
41953;DHT22;63613;28.200;112.870;2023-11-19T11:40:03;20.90;50.00
41953;DHT22;63613;28.200;112.870;2023-11-19T11:42:37;20.80;50.20
41953;DHT22;63613;28.200;112.870;2023-11-19T11:45:08;20.80;50.40
41953;DHT22;63613;28.200;112.870;2023-11-19T11:50:16;20.80;50.60
41953;DHT22;63613;28.200;112.870;2023-11-19T11:55:53;20.80;50.80
41953;DHT22;63613;28.200;112.870;2023-11-19T11:58:32;20.80;51.00
41953;DHT22;63613;28.200;112.870;2023-11-19T12:01:00;20.80;51.10
41953;DHT22;63613;28.200;112.870;2023-11-19T12:03:37;20.80;51.10
41953;DHT22;63613;28.200;112.870;2023-11-19T12:06:04;20.80;51.20
41953;DHT22;63613;28.200;112.870;2023-11-19T12:08:32;20.80;51.30
41953;DHT22;63613;28.200;112.870;2023-11-19T12:11:01;20.80;51.40
41953;DHT22;63613;28.200;112.870;2023-11-19T12:13:47;20.70;51.50
41953;DHT22;63613;28.200;112.870;2023-11-19T12:16:18;20.70;51.60
41953;DHT22;63613;28.200;112.870;2023-11-19T12:18:45;20.70;51.60
41953;DHT22;63613;28.200;112.870;2023-11-19T12:21:12;20.70;51.70
41953;DHT22;63613;28.200;112.870;2023-11-19T12:23:54;20.70;51.80
41953;DHT22;63613;28.200;112.870;2023-11-19T12:26:34;20.70;51.90
41953;DHT22;63613;28.200;112.870;2023-11-19T12:29:01;20.70;52.00
41953;DHT22;63613;28.200;112.870;2023-11-19T12:31:30;20.60;52.10
41953;DHT22;63613;28.200;112.870;2023-11-19T12:34:00;20.60;52.20
41953;DHT22;63613;28.200;112.870;2023-11-19T12:36:27;20.60;52.30
41953;DHT22;63613;28.200;112.870;2023-11-19T12:38:54;20.70;52.40
41953;DHT22;63613;28.200;112.870;2023-11-19T12:41:21;20.60;52.40
41953;DHT22;63613;28.200;112.870;2023-11-19T12:43:51;20.60;52.50
41953;DHT22;63613;28.200;112.870;2023-11-19T12:46:22;20.60;52.60
41953;DHT22;63613;28.200;112.870;2023-11-19T12:48:49;20.60;52.70
41953;DHT22;63613;28.200;112.870;2023-11-19T12:51:19;20.60;52.80
41953;DHT22;63613;28.200;112.870;2023-11-19T12:53:50;20.60;52.90
41953;DHT22;63613;28.200;112.870;2023-11-19T12:56:21;20.60;52.90
41953;DHT22;63613;28.200;112.870;2023-11-19T12:59:11;20.60;53.00
41953;DHT22;63613;28.200;112.870;2023-11-19T13:01:40;20.60;53.10
41953;DHT22;63613;28.200;112.870;2023-11-19T13:04:20;20.60;53.20
41953;DHT22;63613;28.200;112.870;2023-11-19T13:07:07;20.60;53.30
41953;DHT22;63613;28.200;112.870;2023-11-19T13:09:34;20.50;53.40
41953;DHT22;63613;28.200;112.870;2023-11-19T13:12:14;20.50;53.50
41953;DHT22;63613;28.200;112.870;2023-11-19T13:14:44;20.50;53.60
41953;DHT22;63613;28.200;112.870;2023-11-19T13:17:15;20.50;53.70
41953;DHT22;63613;28.200;112.870;2023-11-19T13:19:42;20.50;53.70
41953;DHT22;63613;28.200;112.870;2023-11-19T13:22:09;20.40;53.80
41953;DHT22;63613;28.200;112.870;2023-11-19T13:24:36;20.40;54.00
41953;DHT22;63613;28.200;112.870;2023-11-19T13:27:03;20.40;54.10
41953;DHT22;63613;28.200;112.870;2023-11-19T13:29:31;20.40;54.20
41953;DHT22;63613;28.200;112.870;2023-11-19T13:31:59;20.40;54.30
41953;DHT22;63613;28.200;112.870;2023-11-19T13:34:26;20.40;54.30
41953;DHT22;63613;28.200;112.870;2023-11-19T13:36:54;20.40;54.40
41953;DHT22;63613;28.200;112.870;2023-11-19T13:39:24;20.40;54.50
41953;DHT22;63613;28.200;112.870;2023-11-19T13:41:51;20.40;54.50
41953;DHT22;63613;28.200;112.870;2023-11-19T13:44:18;20.40;54.60
41953;DHT22;63613;28.200;112.870;2023-11-19T13:46:45;20.40;54.60
41953;DHT22;63613;28.200;112.870;2023-11-19T13:49:13;20.30;55.10
41953;DHT22;63613;28.200;112.870;2023-11-19T13:51:40;20.30;55.20
41953;DHT22;63613;28.200;112.870;2023-11-19T13:54:06;20.30;55.30
41953;DHT22;63613;28.200;112.870;2023-11-19T13:56:33;20.30;55.30
41953;DHT22;63613;28.200;112.870;2023-11-19T13:59:07;20.30;55.30
41953;DHT22;63613;28.200;112.870;2023-11-19T14:01:36;20.30;55.30
41953;DHT22;63613;28.200;112.870;2023-11-19T14:04:04;20.30;55.30
41953;DHT22;63613;28.200;112.870;2023-11-19T14:06:32;20.30;55.40
41953;DHT22;63613;28.200;112.870;2023-11-19T14:09:00;20.30;55.40
41953;DHT22;63613;28.200;112.870;2023-11-19T14:11:47;20.30;55.50
41953;DHT22;63613;28.200;112.870;2023-11-19T14:14:18;20.30;55.60
41953;DHT22;63613;28.200;112.870;2023-11-19T14:16:48;20.30;55.60
41953;DHT22;63613;28.200;112.870;2023-11-19T14:19:15;20.30;55.70
41953;DHT22;63613;28.200;112.870;2023-11-19T14:21:42;20.20;55.70
41953;DHT22;63613;28.200;112.870;2023-11-19T14:24:10;20.20;55.80
41953;DHT22;63613;28.200;112.870;2023-11-19T14:26:37;20.20;55.90
41953;DHT22;63613;28.200;112.870;2023-11-19T14:29:06;20.20;56.00
41953;DHT22;63613;28.200;112.870;2023-11-19T14:31:35;20.20;56.00
41953;DHT22;63613;28.200;112.870;2023-11-19T14:34:01;20.20;56.10
41953;DHT22;63613;28.200;112.870;2023-11-19T14:36:28;20.20;56.10
41953;DHT22;63613;28.200;112.870;2023-11-19T14:38:56;20.20;56.20
41953;DHT22;63613;28.200;112.870;2023-11-19T14:41:25;20.20;56.30
41953;DHT22;63613;28.200;112.870;2023-11-19T14:43:51;20.10;56.30
41953;DHT22;63613;28.200;112.870;2023-11-19T14:46:18;20.20;56.50
41953;DHT22;63613;28.200;112.870;2023-11-19T14:48:45;20.20;56.40
41953;DHT22;63613;28.200;112.870;2023-11-19T14:51:12;20.20;56.50
41953;DHT22;63613;28.200;112.870;2023-11-19T14:53:40;20.20;56.50
41953;DHT22;63613;28.200;112.870;2023-11-19T14:56:12;20.10;56.50
41953;DHT22;63613;28.200;112.870;2023-11-19T14:58:39;20.10;56.50
41953;DHT22;63613;28.200;112.870;2023-11-19T15:01:07;20.10;56.50
41953;DHT22;63613;28.200;112.870;2023-11-19T15:03:37;20.10;56.50
41953;DHT22;63613;28.200;112.870;2023-11-19T15:06:06;20.10;56.40
41953;DHT22;63613;28.200;112.870;2023-11-19T15:08:35;20.10;56.50
41953;DHT22;63613;28.200;112.870;2023-11-19T15:11:04;20.10;56.50
41953;DHT22;63613;28.200;112.870;2023-11-19T15:13:32;20.10;56.60
41953;DHT22;63613;28.200;112.870;2023-11-19T15:16:01;20.10;56.50
41953;DHT22;63613;28.200;112.870;2023-11-19T15:18:27;20.10;56.60
41953;DHT22;63613;28.200;112.870;2023-11-19T15:20:55;20.10;56.60
41953;DHT22;63613;28.200;112.870;2023-11-19T15:23:23;20.10;56.70
41953;DHT22;63613;28.200;112.870;2023-11-19T15:26:11;20.00;56.70
41953;DHT22;63613;28.200;112.870;2023-11-19T15:28:37;20.10;56.70
41953;DHT22;63613;28.200;112.870;2023-11-19T15:31:06;20.00;56.80
41953;DHT22;63613;28.200;112.870;2023-11-19T15:33:33;20.00;57.00
41953;DHT22;63613;28.200;112.870;2023-11-19T15:36:00;20.00;56.80
41953;DHT22;63613;28.200;112.870;2023-11-19T15:38:28;20.00;56.80